sensor_id;sensor_type;location;lat;lon;timestamp;temperature;humidity
6627;DHT22;3349;49.830;8.748;2023-04-24T00:01:43;11.70;94.30
6627;DHT22;3349;49.830;8.748;2023-04-24T00:04:10;11.70;94.00
6627;DHT22;3349;49.830;8.748;2023-04-24T00:06:39;11.70;92.80
6627;DHT22;3349;49.830;8.748;2023-04-24T00:09:09;11.70;92.50
6627;DHT22;3349;49.830;8.748;2023-04-24T00:11:36;11.60;93.00
6627;DHT22;3349;49.830;8.748;2023-04-24T00:14:03;11.70;93.00
6627;DHT22;3349;49.830;8.748;2023-04-24T00:16:30;11.70;92.50
6627;DHT22;3349;49.830;8.748;2023-04-24T00:18:56;11.70;92.80
6627;DHT22;3349;49.830;8.748;2023-04-24T00:21:23;11.70;93.20
6627;DHT22;3349;49.830;8.748;2023-04-24T00:23:51;11.70;92.10
6627;DHT22;3349;49.830;8.748;2023-04-24T00:26:19;11.70;92.30
6627;DHT22;3349;49.830;8.748;2023-04-24T00:28:45;11.70;92.90
6627;DHT22;3349;49.830;8.748;2023-04-24T00:31:12;11.70;93.30
6627;DHT22;3349;49.830;8.748;2023-04-24T00:33:39;11.70;93.20
6627;DHT22;3349;49.830;8.748;2023-04-24T00:36:06;11.70;93.30
6627;DHT22;3349;49.830;8.748;2023-04-24T00:38:33;11.70;93.60
6627;DHT22;3349;49.830;8.748;2023-04-24T00:40:59;11.70;92.70
6627;DHT22;3349;49.830;8.748;2023-04-24T00:43:27;11.70;93.30
6627;DHT22;3349;49.830;8.748;2023-04-24T00:45:54;11.70;93.20
6627;DHT22;3349;49.830;8.748;2023-04-24T00:48:21;11.70;93.30
6627;DHT22;3349;49.830;8.748;2023-04-24T00:50:48;11.80;93.20
6627;DHT22;3349;49.830;8.748;2023-04-24T00:53:14;11.80;93.00
6627;DHT22;3349;49.830;8.748;2023-04-24T00:55:41;11.80;92.90
6627;DHT22;3349;49.830;8.748;2023-04-24T00:58:08;11.80;92.70
6627;DHT22;3349;49.830;8.748;2023-04-24T01:00:36;11.90;92.00
6627;DHT22;3349;49.830;8.748;2023-04-24T01:03:04;11.80;92.40
6627;DHT22;3349;49.830;8.748;2023-04-24T01:05:32;11.80;92.20
6627;DHT22;3349;49.830;8.748;2023-04-24T01:07:59;11.80;92.40
6627;DHT22;3349;49.830;8.748;2023-04-24T01:10:27;11.80;92.50
6627;DHT22;3349;49.830;8.748;2023-04-24T01:12:55;11.80;92.60
6627;DHT22;3349;49.830;8.748;2023-04-24T01:15:22;11.90;92.60
6627;DHT22;3349;49.830;8.748;2023-04-24T01:17:51;11.80;92.60
6627;DHT22;3349;49.830;8.748;2023-04-24T01:20:17;11.80;93.20
6627;DHT22;3349;49.830;8.748;2023-04-24T01:22:45;11.80;92.50
6627;DHT22;3349;49.830;8.748;2023-04-24T01:25:12;11.70;92.90
6627;DHT22;3349;49.830;8.748;2023-04-24T01:27:39;11.60;93.50
6627;DHT22;3349;49.830;8.748;2023-04-24T01:30:07;11.50;93.30
6627;DHT22;3349;49.830;8.748;2023-04-24T01:32:34;11.50;94.10
6627;DHT22;3349;49.830;8.748;2023-04-24T01:35:01;11.40;94.50
6627;DHT22;3349;49.830;8.748;2023-04-24T01:37:28;11.40;94.70
6627;DHT22;3349;49.830;8.748;2023-04-24T01:39:58;11.40;94.10
6627;DHT22;3349;49.830;8.748;2023-04-24T01:42:25;11.40;93.80
6627;DHT22;3349;49.830;8.748;2023-04-24T01:44:52;11.40;94.50
6627;DHT22;3349;49.830;8.748;2023-04-24T01:47:20;11.40;94.10
6627;DHT22;3349;49.830;8.748;2023-04-24T01:49:48;11.40;94.60
6627;DHT22;3349;49.830;8.748;2023-04-24T01:52:16;11.40;95.00
6627;DHT22;3349;49.830;8.748;2023-04-24T01:54:43;11.40;94.90
6627;DHT22;3349;49.830;8.748;2023-04-24T01:57:11;11.50;94.10
6627;DHT22;3349;49.830;8.748;2023-04-24T01:59:37;11.50;93.20
6627;DHT22;3349;49.830;8.748;2023-04-24T02:02:04;11.60;91.70
6627;DHT22;3349;49.830;8.748;2023-04-24T02:04:31;11.70;89.90
6627;DHT22;3349;49.830;8.748;2023-04-24T02:06:58;11.70;89.30
6627;DHT22;3349;49.830;8.748;2023-04-24T02:09:24;11.70;90.40
6627;DHT22;3349;49.830;8.748;2023-04-24T02:11:51;11.60;91.20
6627;DHT22;3349;49.830;8.748;2023-04-24T02:14:20;11.60;91.60
6627;DHT22;3349;49.830;8.748;2023-04-24T02:16:46;11.50;93.20
6627;DHT22;3349;49.830;8.748;2023-04-24T02:19:13;11.50;93.40
6627;DHT22;3349;49.830;8.748;2023-04-24T02:21:40;11.50;93.80
6627;DHT22;3349;49.830;8.748;2023-04-24T02:24:07;11.50;94.40
6627;DHT22;3349;49.830;8.748;2023-04-24T02:26:33;11.50;94.40
6627;DHT22;3349;49.830;8.748;2023-04-24T02:29:00;11.50;94.70
6627;DHT22;3349;49.830;8.748;2023-04-24T02:31:28;11.50;94.70
6627;DHT22;3349;49.830;8.748;2023-04-24T02:33:55;11.50;94.30
6627;DHT22;3349;49.830;8.748;2023-04-24T02:36:22;11.60;94.50
6627;DHT22;3349;49.830;8.748;2023-04-24T02:38:48;11.60;94.80
6627;DHT22;3349;49.830;8.748;2023-04-24T02:41:15;11.60;96.10
6627;DHT22;3349;49.830;8.748;2023-04-24T02:43:42;11.60;96.90
6627;DHT22;3349;49.830;8.748;2023-04-24T02:46:08;11.50;97.40
6627;DHT22;3349;49.830;8.748;2023-04-24T02:48:36;11.50;97.20
6627;DHT22;3349;49.830;8.748;2023-04-24T02:51:03;11.40;97.60
6627;DHT22;3349;49.830;8.748;2023-04-24T02:53:30;11.40;98.80
6627;DHT22;3349;49.830;8.748;2023-04-24T02:55:57;11.40;98.80
6627;DHT22;3349;49.830;8.748;2023-04-24T02:58:23;11.40;99.00
6627;DHT22;3349;49.830;8.748;2023-04-24T03:00:53;11.30;98.20
6627;DHT22;3349;49.830;8.748;2023-04-24T03:03:21;11.30;97.30
6627;DHT22;3349;49.830;8.748;2023-04-24T03:05:49;11.30;96.50
6627;DHT22;3349;49.830;8.748;2023-04-24T03:08:16;11.30;96.50
6627;DHT22;3349;49.830;8.748;2023-04-24T03:10:43;11.30;96.80
6627;DHT22;3349;49.830;8.748;2023-04-24T03:13:09;11.20;96.20
6627;DHT22;3349;49.830;8.748;2023-04-24T03:15:36;11.20;95.90
6627;DHT22;3349;49.830;8.748;2023-04-24T03:18:03;11.10;95.50
6627;DHT22;3349;49.830;8.748;2023-04-24T03:20:30;11.10;95.80
6627;DHT22;3349;49.830;8.748;2023-04-24T03:22:58;11.10;95.60
6627;DHT22;3349;49.830;8.748;2023-04-24T03:25:24;11.10;95.70
6627;DHT22;3349;49.830;8.748;2023-04-24T03:27:51;11.00;97.00
6627;DHT22;3349;49.830;8.748;2023-04-24T03:30:20;11.00;98.50
6627;DHT22;3349;49.830;8.748;2023-04-24T03:32:47;10.90;99.90
6627;DHT22;3349;49.830;8.748;2023-04-24T03:35:13;10.80;99.90
6627;DHT22;3349;49.830;8.748;2023-04-24T03:37:40;10.70;99.90
6627;DHT22;3349;49.830;8.748;2023-04-24T03:40:09;10.60;99.90
6627;DHT22;3349;49.830;8.748;2023-04-24T03:42:36;10.50;99.90
6627;DHT22;3349;49.830;8.748;2023-04-24T03:45:03;10.40;99.90
6627;DHT22;3349;49.830;8.748;2023-04-24T03:47:30;10.40;99.90
6627;DHT22;3349;49.830;8.748;2023-04-24T03:49:56;10.30;99.90
6627;DHT22;3349;49.830;8.748;2023-04-24T03:52:23;10.20;99.90
6627;DHT22;3349;49.830;8.748;2023-04-24T03:54:50;10.20;99.90
6627;DHT22;3349;49.830;8.748;2023-04-24T03:57:18;10.20;99.90
6627;DHT22;3349;49.830;8.748;2023-04-24T03:59:45;10.10;99.90
6627;DHT22;3349;49.830;8.748;2023-04-24T04:02:12;10.10;99.90
6627;DHT22;3349;49.830;8.748;2023-04-24T04:04:38;10.10;99.90
6627;DHT22;3349;49.830;8.748;2023-04-24T04:07:05;10.00;99.90
6627;DHT22;3349;49.830;8.748;2023-04-24T04:09:32;10.00;99.90
6627;DHT22;3349;49.830;8.748;2023-04-24T04:11:59;10.00;99.90
6627;DHT22;3349;49.830;8.748;2023-04-24T04:14:27;9.90;99.90
6627;DHT22;3349;49.830;8.748;2023-04-24T04:16:54;9.90;99.90
6627;DHT22;3349;49.830;8.748;2023-04-24T04:19:21;9.80;99.90
6627;DHT22;3349;49.830;8.748;2023-04-24T04:21:48;9.80;99.90
6627;DHT22;3349;49.830;8.748;2023-04-24T04:24:18;9.70;99.90
6627;DHT22;3349;49.830;8.748;2023-04-24T04:26:46;9.70;99.90
6627;DHT22;3349;49.830;8.748;2023-04-24T04:29:12;9.60;99.90
6627;DHT22;3349;49.830;8.748;2023-04-24T04:31:40;9.60;99.90
6627;DHT22;3349;49.830;8.748;2023-04-24T04:34:07;9.60;99.90
6627;DHT22;3349;49.830;8.748;2023-04-24T04:36:34;9.50;99.90
6627;DHT22;3349;49.830;8.748;2023-04-24T04:39:02;9.50;99.90
6627;DHT22;3349;49.830;8.748;2023-04-24T04:41:29;9.50;99.90
6627;DHT22;3349;49.830;8.748;2023-04-24T04:43:56;9.40;99.90
6627;DHT22;3349;49.830;8.748;2023-04-24T04:46:23;9.50;99.90
6627;DHT22;3349;49.830;8.748;2023-04-24T04:48:52;9.50;99.90
6627;DHT22;3349;49.830;8.748;2023-04-24T04:51:19;9.50;99.90
6627;DHT22;3349;49.830;8.748;2023-04-24T04:53:46;9.40;99.90
6627;DHT22;3349;49.830;8.748;2023-04-24T04:56:13;9.40;99.90
6627;DHT22;3349;49.830;8.748;2023-04-24T04:58:39;9.40;99.90
6627;DHT22;3349;49.830;8.748;2023-04-24T05:01:06;9.40;99.90
6627;DHT22;3349;49.830;8.748;2023-04-24T05:03:33;9.40;99.90
6627;DHT22;3349;49.830;8.748;2023-04-24T05:06:01;9.40;99.90
6627;DHT22;3349;49.830;8.748;2023-04-24T05:08:28;9.40;99.90
6627;DHT22;3349;49.830;8.748;2023-04-24T05:10:55;9.40;99.90
6627;DHT22;3349;49.830;8.748;2023-04-24T05:13:21;9.40;99.90
6627;DHT22;3349;49.830;8.748;2023-04-24T05:15:48;9.40;99.90
6627;DHT22;3349;49.830;8.748;2023-04-24T05:18:15;9.50;99.90
6627;DHT22;3349;49.830;8.748;2023-04-24T05:20:42;9.50;99.90
6627;DHT22;3349;49.830;8.748;2023-04-24T05:23:10;9.50;99.90
6627;DHT22;3349;49.830;8.748;2023-04-24T05:25:37;9.60;99.90
6627;DHT22;3349;49.830;8.748;2023-04-24T05:28:05;9.70;99.90
6627;DHT22;3349;49.830;8.748;2023-04-24T05:30:32;9.80;99.90
6627;DHT22;3349;49.830;8.748;2023-04-24T05:32:58;9.80;99.90
6627;DHT22;3349;49.830;8.748;2023-04-24T05:35:25;9.90;99.90
6627;DHT22;3349;49.830;8.748;2023-04-24T05:37:52;9.90;97.40
6627;DHT22;3349;49.830;8.748;2023-04-24T05:40:20;9.80;97.10
6627;DHT22;3349;49.830;8.748;2023-04-24T05:42:46;9.90;96.70
6627;DHT22;3349;49.830;8.748;2023-04-24T05:45:13;9.90;96.70
6627;DHT22;3349;49.830;8.748;2023-04-24T05:47:42;9.90;97.40
6627;DHT22;3349;49.830;8.748;2023-04-24T05:50:09;9.90;95.40
6627;DHT22;3349;49.830;8.748;2023-04-24T05:52:36;10.00;94.80
6627;DHT22;3349;49.830;8.748;2023-04-24T05:55:03;10.00;93.20
6627;DHT22;3349;49.830;8.748;2023-04-24T05:57:32;10.00;93.20
6627;DHT22;3349;49.830;8.748;2023-04-24T05:59:58;10.00;92.10
6627;DHT22;3349;49.830;8.748;2023-04-24T06:02:25;10.00;90.80
6627;DHT22;3349;49.830;8.748;2023-04-24T06:04:52;10.00;91.40
6627;DHT22;3349;49.830;8.748;2023-04-24T06:07:19;10.10;91.50
6627;DHT22;3349;49.830;8.748;2023-04-24T06:09:46;10.00;92.20
6627;DHT22;3349;49.830;8.748;2023-04-24T06:12:13;10.10;87.70
6627;DHT22;3349;49.830;8.748;2023-04-24T06:14:41;10.10;86.30
6627;DHT22;3349;49.830;8.748;2023-04-24T06:17:08;10.10;84.00
6627;DHT22;3349;49.830;8.748;2023-04-24T06:19:34;10.20;87.10
6627;DHT22;3349;49.830;8.748;2023-04-24T06:22:01;10.20;85.60
6627;DHT22;3349;49.830;8.748;2023-04-24T06:24:28;10.10;87.20
6627;DHT22;3349;49.830;8.748;2023-04-24T06:26:55;10.10;85.80
6627;DHT22;3349;49.830;8.748;2023-04-24T06:29:22;10.10;87.20
6627;DHT22;3349;49.830;8.748;2023-04-24T06:31:50;10.10;87.90
6627;DHT22;3349;49.830;8.748;2023-04-24T06:34:17;10.10;88.80
6627;DHT22;3349;49.830;8.748;2023-04-24T06:36:44;10.20;86.90
6627;DHT22;3349;49.830;8.748;2023-04-24T06:39:11;10.20;88.20
6627;DHT22;3349;49.830;8.748;2023-04-24T06:41:37;10.20;87.60
6627;DHT22;3349;49.830;8.748;2023-04-24T06:44:05;10.20;85.40
6627;DHT22;3349;49.830;8.748;2023-04-24T06:46:32;10.20;85.70
6627;DHT22;3349;49.830;8.748;2023-04-24T06:49:00;10.20;85.70
6627;DHT22;3349;49.830;8.748;2023-04-24T06:51:27;10.20;84.40
6627;DHT22;3349;49.830;8.748;2023-04-24T06:53:54;10.20;86.30
6627;DHT22;3349;49.830;8.748;2023-04-24T06:56:21;10.20;86.80
6627;DHT22;3349;49.830;8.748;2023-04-24T06:58:48;10.30;85.50
6627;DHT22;3349;49.830;8.748;2023-04-24T07:01:15;10.40;85.30
6627;DHT22;3349;49.830;8.748;2023-04-24T07:03:42;10.60;84.90
6627;DHT22;3349;49.830;8.748;2023-04-24T07:06:10;10.70;84.20
6627;DHT22;3349;49.830;8.748;2023-04-24T07:08:38;10.80;83.40
6627;DHT22;3349;49.830;8.748;2023-04-24T07:11:05;11.00;79.90
6627;DHT22;3349;49.830;8.748;2023-04-24T07:13:32;11.30;77.70
6627;DHT22;3349;49.830;8.748;2023-04-24T07:16:03;11.50;76.60
6627;DHT22;3349;49.830;8.748;2023-04-24T07:18:30;12.00;70.90
6627;DHT22;3349;49.830;8.748;2023-04-24T07:20:56;12.30;67.30
6627;DHT22;3349;49.830;8.748;2023-04-24T07:23:25;12.40;64.80
6627;DHT22;3349;49.830;8.748;2023-04-24T07:25:51;12.60;65.50
6627;DHT22;3349;49.830;8.748;2023-04-24T07:28:18;12.70;63.10
6627;DHT22;3349;49.830;8.748;2023-04-24T07:30:45;12.50;63.90
6627;DHT22;3349;49.830;8.748;2023-04-24T07:33:12;12.60;64.40
6627;DHT22;3349;49.830;8.748;2023-04-24T07:35:39;12.50;62.90
6627;DHT22;3349;49.830;8.748;2023-04-24T07:38:05;12.50;63.90
6627;DHT22;3349;49.830;8.748;2023-04-24T07:40:33;12.30;64.50
6627;DHT22;3349;49.830;8.748;2023-04-24T07:43:00;12.10;65.90
6627;DHT22;3349;49.830;8.748;2023-04-24T07:45:27;11.80;67.70
6627;DHT22;3349;49.830;8.748;2023-04-24T07:47:53;11.50;70.00
6627;DHT22;3349;49.830;8.748;2023-04-24T07:50:20;11.40;71.10
6627;DHT22;3349;49.830;8.748;2023-04-24T07:52:48;11.50;71.70
6627;DHT22;3349;49.830;8.748;2023-04-24T07:55:14;11.60;69.70
6627;DHT22;3349;49.830;8.748;2023-04-24T07:57:42;12.00;70.90
6627;DHT22;3349;49.830;8.748;2023-04-24T08:00:10;12.40;67.40
6627;DHT22;3349;49.830;8.748;2023-04-24T08:02:37;12.70;65.00
6627;DHT22;3349;49.830;8.748;2023-04-24T08:05:04;13.30;60.20
6627;DHT22;3349;49.830;8.748;2023-04-24T08:07:31;13.20;59.70
6627;DHT22;3349;49.830;8.748;2023-04-24T08:09:58;12.90;61.00
6627;DHT22;3349;49.830;8.748;2023-04-24T08:12:25;12.60;63.40
6627;DHT22;3349;49.830;8.748;2023-04-24T08:14:53;12.40;64.80
6627;DHT22;3349;49.830;8.748;2023-04-24T08:17:20;12.10;66.20
6627;DHT22;3349;49.830;8.748;2023-04-24T08:19:47;12.00;67.00
6627;DHT22;3349;49.830;8.748;2023-04-24T08:22:14;11.90;68.20
6627;DHT22;3349;49.830;8.748;2023-04-24T08:24:40;11.70;69.50
6627;DHT22;3349;49.830;8.748;2023-04-24T08:27:08;11.70;65.40
6627;DHT22;3349;49.830;8.748;2023-04-24T08:29:35;11.90;64.00
6627;DHT22;3349;49.830;8.748;2023-04-24T08:32:03;12.30;58.80
6627;DHT22;3349;49.830;8.748;2023-04-24T08:34:30;12.40;58.40
6627;DHT22;3349;49.830;8.748;2023-04-24T08:36:56;12.50;56.20
6627;DHT22;3349;49.830;8.748;2023-04-24T08:39:23;12.30;55.60
6627;DHT22;3349;49.830;8.748;2023-04-24T08:41:50;12.10;57.00
6627;DHT22;3349;49.830;8.748;2023-04-24T08:44:19;12.00;58.10
6627;DHT22;3349;49.830;8.748;2023-04-24T08:46:47;11.90;58.00
6627;DHT22;3349;49.830;8.748;2023-04-24T08:49:17;11.90;57.60
6627;DHT22;3349;49.830;8.748;2023-04-24T08:51:44;12.00;56.30
6627;DHT22;3349;49.830;8.748;2023-04-24T08:54:12;12.90;53.70
6627;DHT22;3349;49.830;8.748;2023-04-24T08:56:40;14.40;50.50
6627;DHT22;3349;49.830;8.748;2023-04-24T08:59:10;16.10;45.30
6627;DHT22;3349;49.830;8.748;2023-04-24T09:01:38;17.60;42.30
6627;DHT22;3349;49.830;8.748;2023-04-24T09:04:08;18.30;38.60
6627;DHT22;3349;49.830;8.748;2023-04-24T09:06:37;18.80;37.40
6627;DHT22;3349;49.830;8.748;2023-04-24T09:09:03;18.40;38.30
6627;DHT22;3349;49.830;8.748;2023-04-24T09:11:31;17.60;38.60
6627;DHT22;3349;49.830;8.748;2023-04-24T09:13:58;16.70;40.60
6627;DHT22;3349;49.830;8.748;2023-04-24T09:16:26;15.50;42.90
6627;DHT22;3349;49.830;8.748;2023-04-24T09:18:53;14.90;44.30
6627;DHT22;3349;49.830;8.748;2023-04-24T09:21:21;14.80;44.20
6627;DHT22;3349;49.830;8.748;2023-04-24T09:23:59;14.30;45.40
6627;DHT22;3349;49.830;8.748;2023-04-24T09:26:28;13.80;46.60
6627;DHT22;3349;49.830;8.748;2023-04-24T09:28:56;13.10;48.30
6627;DHT22;3349;49.830;8.748;2023-04-24T09:31:23;13.00;50.00
6627;DHT22;3349;49.830;8.748;2023-04-24T09:33:57;12.90;50.80
6627;DHT22;3349;49.830;8.748;2023-04-24T09:36:28;13.00;50.90
6627;DHT22;3349;49.830;8.748;2023-04-24T09:39:00;12.90;50.80
6627;DHT22;3349;49.830;8.748;2023-04-24T09:41:28;12.80;50.80
6627;DHT22;3349;49.830;8.748;2023-04-24T09:43:55;12.60;51.00
6627;DHT22;3349;49.830;8.748;2023-04-24T09:46:29;12.70;51.40
6627;DHT22;3349;49.830;8.748;2023-04-24T09:48:57;12.50;52.20
6627;DHT22;3349;49.830;8.748;2023-04-24T09:51:34;12.30;52.70
6627;DHT22;3349;49.830;8.748;2023-04-24T09:54:03;12.20;53.00
6627;DHT22;3349;49.830;8.748;2023-04-24T09:56:32;12.00;54.50
6627;DHT22;3349;49.830;8.748;2023-04-24T09:59:04;12.00;55.20
6627;DHT22;3349;49.830;8.748;2023-04-24T10:01:31;12.00;55.20
6627;DHT22;3349;49.830;8.748;2023-04-24T10:03:59;11.90;55.00
6627;DHT22;3349;49.830;8.748;2023-04-24T10:06:32;11.80;56.10
6627;DHT22;3349;49.830;8.748;2023-04-24T10:08:59;11.90;57.20
6627;DHT22;3349;49.830;8.748;2023-04-24T10:11:28;12.10;56.70
6627;DHT22;3349;49.830;8.748;2023-04-24T10:13:55;12.30;55.90
6627;DHT22;3349;49.830;8.748;2023-04-24T10:16:23;12.20;55.70
6627;DHT22;3349;49.830;8.748;2023-04-24T10:18:50;12.20;56.10
6627;DHT22;3349;49.830;8.748;2023-04-24T10:21:17;12.10;56.40
6627;DHT22;3349;49.830;8.748;2023-04-24T10:23:44;12.30;56.30
6627;DHT22;3349;49.830;8.748;2023-04-24T10:26:12;12.10;56.50
6627;DHT22;3349;49.830;8.748;2023-04-24T10:28:45;12.00;56.80
6627;DHT22;3349;49.830;8.748;2023-04-24T10:31:12;12.00;57.60
6627;DHT22;3349;49.830;8.748;2023-04-24T10:33:40;11.90;57.10
6627;DHT22;3349;49.830;8.748;2023-04-24T10:36:08;11.90;57.20
6627;DHT22;3349;49.830;8.748;2023-04-24T10:38:37;11.80;57.20
6627;DHT22;3349;49.830;8.748;2023-04-24T10:41:09;11.80;57.90
6627;DHT22;3349;49.830;8.748;2023-04-24T10:43:41;11.80;57.90
6627;DHT22;3349;49.830;8.748;2023-04-24T10:46:10;11.80;57.90
6627;DHT22;3349;49.830;8.748;2023-04-24T10:48:42;11.80;57.90
6627;DHT22;3349;49.830;8.748;2023-04-24T10:51:11;11.70;58.90
6627;DHT22;3349;49.830;8.748;2023-04-24T10:53:38;11.90;58.90
6627;DHT22;3349;49.830;8.748;2023-04-24T10:56:06;12.20;58.20
6627;DHT22;3349;49.830;8.748;2023-04-24T10:58:40;12.70;57.30
6627;DHT22;3349;49.830;8.748;2023-04-24T11:01:23;13.40;55.20
6627;DHT22;3349;49.830;8.748;2023-04-24T11:03:54;13.80;53.10
6627;DHT22;3349;49.830;8.748;2023-04-24T11:06:29;14.10;51.80
6627;DHT22;3349;49.830;8.748;2023-04-24T11:09:02;14.00;50.80
6627;DHT22;3349;49.830;8.748;2023-04-24T11:11:30;14.00;51.00
6627;DHT22;3349;49.830;8.748;2023-04-24T11:14:09;14.00;51.80
6627;DHT22;3349;49.830;8.748;2023-04-24T11:16:43;13.90;51.30
6627;DHT22;3349;49.830;8.748;2023-04-24T11:19:20;13.50;51.30
6627;DHT22;3349;49.830;8.748;2023-04-24T11:21:48;13.30;51.70
6627;DHT22;3349;49.830;8.748;2023-04-24T11:24:24;12.70;52.30
6627;DHT22;3349;49.830;8.748;2023-04-24T11:26:51;12.60;54.10
6627;DHT22;3349;49.830;8.748;2023-04-24T11:29:20;12.30;54.50
6627;DHT22;3349;49.830;8.748;2023-04-24T11:31:48;12.20;55.30
6627;DHT22;3349;49.830;8.748;2023-04-24T11:34:17;12.00;55.40
6627;DHT22;3349;49.830;8.748;2023-04-24T11:36:44;11.90;56.90
6627;DHT22;3349;49.830;8.748;2023-04-24T11:39:12;11.70;56.90
6627;DHT22;3349;49.830;8.748;2023-04-24T11:41:39;11.80;57.90
6627;DHT22;3349;49.830;8.748;2023-04-24T11:44:07;11.70;59.10
6627;DHT22;3349;49.830;8.748;2023-04-24T11:46:34;11.70;59.20
6627;DHT22;3349;49.830;8.748;2023-04-24T11:49:04;11.60;58.50
6627;DHT22;3349;49.830;8.748;2023-04-24T11:51:32;11.70;57.80
6627;DHT22;3349;49.830;8.748;2023-04-24T11:53:58;11.60;57.80
6627;DHT22;3349;49.830;8.748;2023-04-24T11:56:25;11.60;57.80
6627;DHT22;3349;49.830;8.748;2023-04-24T11:58:52;11.70;57.80
6627;DHT22;3349;49.830;8.748;2023-04-24T12:01:20;11.60;57.80
6627;DHT22;3349;49.830;8.748;2023-04-24T12:03:48;11.60;57.80
6627;DHT22;3349;49.830;8.748;2023-04-24T12:06:18;11.60;58.40
6627;DHT22;3349;49.830;8.748;2023-04-24T12:08:48;11.70;58.30
6627;DHT22;3349;49.830;8.748;2023-04-24T12:11:16;11.60;59.50
6627;DHT22;3349;49.830;8.748;2023-04-24T12:13:44;11.70;59.70
6627;DHT22;3349;49.830;8.748;2023-04-24T12:16:11;11.60;66.60
6627;DHT22;3349;49.830;8.748;2023-04-24T12:18:42;11.30;76.40
6627;DHT22;3349;49.830;8.748;2023-04-24T12:21:18;11.20;86.50
6627;DHT22;3349;49.830;8.748;2023-04-24T12:23:46;10.80;92.50
6627;DHT22;3349;49.830;8.748;2023-04-24T12:26:16;10.70;95.30
6627;DHT22;3349;49.830;8.748;2023-04-24T12:28:47;10.50;95.90
6627;DHT22;3349;49.830;8.748;2023-04-24T12:31:14;10.50;96.40
6627;DHT22;3349;49.830;8.748;2023-04-24T12:33:41;10.50;95.60
6627;DHT22;3349;49.830;8.748;2023-04-24T12:36:10;10.60;94.90
6627;DHT22;3349;49.830;8.748;2023-04-24T12:38:39;10.80;94.20
6627;DHT22;3349;49.830;8.748;2023-04-24T12:41:11;11.10;93.20
6627;DHT22;3349;49.830;8.748;2023-04-24T12:43:38;11.40;92.80
6627;DHT22;3349;49.830;8.748;2023-04-24T12:46:05;11.60;90.20
6627;DHT22;3349;49.830;8.748;2023-04-24T12:48:32;11.70;82.30
6627;DHT22;3349;49.830;8.748;2023-04-24T12:50:59;11.80;81.80
6627;DHT22;3349;49.830;8.748;2023-04-24T12:53:27;12.00;80.70
6627;DHT22;3349;49.830;8.748;2023-04-24T12:55:56;12.10;80.00
6627;DHT22;3349;49.830;8.748;2023-04-24T12:58:23;12.20;80.20
6627;DHT22;3349;49.830;8.748;2023-04-24T13:00:50;12.40;76.70
6627;DHT22;3349;49.830;8.748;2023-04-24T13:03:17;12.70;74.10
6627;DHT22;3349;49.830;8.748;2023-04-24T13:05:44;12.90;65.80
6627;DHT22;3349;49.830;8.748;2023-04-24T13:08:11;13.10;68.50
6627;DHT22;3349;49.830;8.748;2023-04-24T13:10:38;13.30;64.60
6627;DHT22;3349;49.830;8.748;2023-04-24T13:13:07;13.20;65.40
6627;DHT22;3349;49.830;8.748;2023-04-24T13:15:34;13.10;65.80
6627;DHT22;3349;49.830;8.748;2023-04-24T13:18:02;13.10;61.00
6627;DHT22;3349;49.830;8.748;2023-04-24T13:20:29;13.10;61.20
6627;DHT22;3349;49.830;8.748;2023-04-24T13:22:55;13.10;59.70
6627;DHT22;3349;49.830;8.748;2023-04-24T13:25:22;13.20;59.10
6627;DHT22;3349;49.830;8.748;2023-04-24T13:27:50;13.40;57.10
6627;DHT22;3349;49.830;8.748;2023-04-24T13:30:18;13.40;54.40
6627;DHT22;3349;49.830;8.748;2023-04-24T13:32:45;13.50;53.70
6627;DHT22;3349;49.830;8.748;2023-04-24T13:35:12;13.70;53.70
6627;DHT22;3349;49.830;8.748;2023-04-24T13:37:39;13.70;53.40
6627;DHT22;3349;49.830;8.748;2023-04-24T13:40:06;13.70;51.60
6627;DHT22;3349;49.830;8.748;2023-04-24T13:42:33;13.60;53.10
6627;DHT22;3349;49.830;8.748;2023-04-24T13:45:00;13.50;50.70
6627;DHT22;3349;49.830;8.748;2023-04-24T13:47:28;13.50;49.00
6627;DHT22;3349;49.830;8.748;2023-04-24T13:49:55;13.40;51.20
6627;DHT22;3349;49.830;8.748;2023-04-24T13:52:22;13.10;51.40
6627;DHT22;3349;49.830;8.748;2023-04-24T13:54:48;13.10;52.80
6627;DHT22;3349;49.830;8.748;2023-04-24T13:57:15;12.90;53.90
6627;DHT22;3349;49.830;8.748;2023-04-24T13:59:43;13.00;54.40
6627;DHT22;3349;49.830;8.748;2023-04-24T14:02:10;12.90;54.70
6627;DHT22;3349;49.830;8.748;2023-04-24T14:04:38;12.90;54.30
6627;DHT22;3349;49.830;8.748;2023-04-24T14:07:06;12.70;53.70
6627;DHT22;3349;49.830;8.748;2023-04-24T14:09:33;12.70;53.70
6627;DHT22;3349;49.830;8.748;2023-04-24T14:12:00;12.70;53.40
6627;DHT22;3349;49.830;8.748;2023-04-24T14:14:28;12.70;52.50
6627;DHT22;3349;49.830;8.748;2023-04-24T14:16:55;12.70;53.60
6627;DHT22;3349;49.830;8.748;2023-04-24T14:19:22;12.70;53.90
6627;DHT22;3349;49.830;8.748;2023-04-24T14:21:50;12.80;53.70
6627;DHT22;3349;49.830;8.748;2023-04-24T14:24:18;12.90;54.20
6627;DHT22;3349;49.830;8.748;2023-04-24T14:26:44;13.00;53.60
6627;DHT22;3349;49.830;8.748;2023-04-24T14:29:11;13.10;53.40
6627;DHT22;3349;49.830;8.748;2023-04-24T14:31:39;13.10;52.30
6627;DHT22;3349;49.830;8.748;2023-04-24T14:34:06;13.10;51.60
6627;DHT22;3349;49.830;8.748;2023-04-24T14:36:32;13.20;52.10
6627;DHT22;3349;49.830;8.748;2023-04-24T14:39:01;13.20;51.10
6627;DHT22;3349;49.830;8.748;2023-04-24T14:41:31;13.00;50.90
6627;DHT22;3349;49.830;8.748;2023-04-24T14:44:01;12.90;51.20
6627;DHT22;3349;49.830;8.748;2023-04-24T14:46:28;12.70;52.30
6627;DHT22;3349;49.830;8.748;2023-04-24T14:48:55;12.70;52.60
6627;DHT22;3349;49.830;8.748;2023-04-24T14:51:22;12.70;52.60
6627;DHT22;3349;49.830;8.748;2023-04-24T14:53:49;12.70;53.50
6627;DHT22;3349;49.830;8.748;2023-04-24T14:56:17;12.70;54.10
6627;DHT22;3349;49.830;8.748;2023-04-24T14:58:44;12.70;54.60
6627;DHT22;3349;49.830;8.748;2023-04-24T15:01:12;12.70;53.60
6627;DHT22;3349;49.830;8.748;2023-04-24T15:03:38;12.80;52.60
6627;DHT22;3349;49.830;8.748;2023-04-24T15:06:06;12.80;52.80
6627;DHT22;3349;49.830;8.748;2023-04-24T15:08:32;12.80;52.80
6627;DHT22;3349;49.830;8.748;2023-04-24T15:10:59;12.80;51.70
6627;DHT22;3349;49.830;8.748;2023-04-24T15:13:27;12.60;50.60
6627;DHT22;3349;49.830;8.748;2023-04-24T15:15:54;12.50;51.60
6627;DHT22;3349;49.830;8.748;2023-04-24T15:18:21;12.50;51.60
6627;DHT22;3349;49.830;8.748;2023-04-24T15:20:48;12.40;51.70
6627;DHT22;3349;49.830;8.748;2023-04-24T15:23:18;12.40;51.60
6627;DHT22;3349;49.830;8.748;2023-04-24T15:25:44;12.40;51.60
6627;DHT22;3349;49.830;8.748;2023-04-24T15:28:11;12.30;51.50
6627;DHT22;3349;49.830;8.748;2023-04-24T15:30:40;12.30;51.70
6627;DHT22;3349;49.830;8.748;2023-04-24T15:33:07;12.30;51.90
6627;DHT22;3349;49.830;8.748;2023-04-24T15:35:34;12.30;51.70
6627;DHT22;3349;49.830;8.748;2023-04-24T15:38:01;12.30;52.60
6627;DHT22;3349;49.830;8.748;2023-04-24T15:40:29;12.50;53.10
6627;DHT22;3349;49.830;8.748;2023-04-24T15:42:55;12.60;52.00
6627;DHT22;3349;49.830;8.748;2023-04-24T15:45:22;12.70;51.60
6627;DHT22;3349;49.830;8.748;2023-04-24T15:47:50;12.60;52.00
6627;DHT22;3349;49.830;8.748;2023-04-24T15:50:17;12.70;52.40
6627;DHT22;3349;49.830;8.748;2023-04-24T15:52:47;12.70;52.50
6627;DHT22;3349;49.830;8.748;2023-04-24T15:55:13;12.80;51.10
6627;DHT22;3349;49.830;8.748;2023-04-24T15:57:41;12.70;50.70
6627;DHT22;3349;49.830;8.748;2023-04-24T16:00:09;12.70;51.10
6627;DHT22;3349;49.830;8.748;2023-04-24T16:02:36;12.80;50.10
6627;DHT22;3349;49.830;8.748;2023-04-24T16:05:05;12.80;50.00